Pagrindinis puslapis
METAR-TAF:

METAR-TAF

Oro uostai :

Meiringen, Šveicarija

platuma: 46-44-25N, ilguma: 8-06-36E, Aukštis: 577 m

Dabartinis oras

Ataskaita buvo paskelbta 1 valandą ir 9 minutes, ne 09:50 UTC
Vėjas 4 kt iš Vakarų/Pietvakarių, svyruoja nuo Pietų/Pietvakarių ir Vakarų
Temperatūra 17°C
Drėgmė 68%
Slėgis 1020 hPa
Matomumas 10 km arba daugiau

METAR: LSMM 210950Z AUTO 24004KT 200V280 9999NDV NCD 17/11 Q1020 RMK

Laikas: 12:59 (10:59 UTC)


TAF: trūkstamas

Orai ataskaitas ir orų prognozės (METAR, TAF).

turimą stotys yra geltonos ir raudonos taškus žemėlapyje.

Perkelti pele per norėdami pamatyti stoties vardą.

Tada spustelėkite, norėdami matyti oro stebėjimo ir prognozės.

Norėdami pakeisti žemėlapį: spustelėkite ant žalios mygtukų su juodo kryžiaus žemyn,; žalią mygtuką su brūkšneliu, jei norite nutolinti; arba žalių rodyklių gretimoms žemėlapius.


METAR-TAF: